Time;durP1;ratioP1;P1;durP2;ratioP2;P2;SDS_P1;SDS_P2;PMS_P1;PMS_P2;Temp;Humidity;BMP_temperature;BMP_pressure;BME280_temperature;BME280_humidity;BME280_pressure;Samples;Min_cycle;Max_cycle;Signal;HPM_P1;HPM_P2
2022/08/08 00:03:29;;;;;;;;;;;;;;;17.77;92.78;101369.94;10027766;29;20429;-70
2022/08/08 00:08:41;;;;;;;;;;;;;;;17.72;93.60;101368.31;10027539;29;19932;-70
2022/08/08 00:13:54;;;;;;;;;;;;;;;17.69;93.56;101357.88;10027450;29;20365;-72
2022/08/08 00:19:19;;;;;;;;;;;;;;;17.57;93.83;101359.00;10026955;29;19929;-73
2022/08/08 00:24:28;;;;;;;;;;;;;;;17.56;93.80;101359.91;10027099;29;19993;-72
2022/08/08 00:29:35;;;;;;;;;;;;;;;17.58;94.05;101355.50;10026606;29;19929;-73
2022/08/08 00:35:13;;;;;;;;;;;;;;;17.59;94.13;101357.22;10026510;29;19938;-72
2022/08/08 00:40:34;;;;;;;;;;;;;;;17.54;95.12;101353.84;10020601;29;19935;-71
2022/08/08 00:46:04;;;;;;;;;;;;;;;17.48;95.26;101353.13;10026115;29;19975;-70
2022/08/08 00:51:42;;;;;;;;;;;;;;;17.47;94.70;101352.25;10025967;29;19929;-72
2022/08/08 00:57:14;;;;;;;;;;;;;;;17.42;94.83;101356.72;10012833;29;19929;-68
2022/08/08 01:02:50;;;;;;;;;;;;;;;17.30;96.22;101347.34;10026255;29;19929;-71
2022/08/08 01:08:43;;;;;;;;;;;;;;;17.32;96.07;101352.56;10025135;29;20373;-71
2022/08/08 01:14:10;;;;;;;;;;;;;;;17.27;96.76;101351.81;9958960;29;19930;-70
2022/08/08 01:19:47;;;;;;;;;;;;;;;17.28;96.65;101345.63;10025499;29;19928;-72
2022/08/08 01:25:22;;;;;;;;;;;;;;;17.21;96.76;101351.91;10025643;29;19933;-70
2022/08/08 01:31:07;;;;;;;;;;;;;;;17.15;97.05;101331.91;10003617;29;19929;-72
2022/08/08 01:36:59;;;;;;;;;;;;;;;17.08;97.67;101339.97;10024695;29;20275;-70
2022/08/08 01:42:08;;;;;;;;;;;;;;;17.00;98.17;101334.88;10024041;29;19928;-75
2022/08/08 01:47:22;;;;;;;;;;;;;;;17.02;98.32;101337.44;10024006;29;19928;-71
2022/08/08 01:52:51;;;;;;;;;;;;;;;17.05;98.22;101338.25;10024130;29;19932;-71
2022/08/08 01:58:23;;;;;;;;;;;;;;;16.97;98.58;101345.44;10024339;29;19928;-71
2022/08/08 02:03:52;;;;;;;;;;;;;;;17.02;97.96;101347.94;10023888;29;19928;-72
2022/08/08 02:09:03;;;;;;;;;;;;;;;16.92;98.00;101356.91;10023483;29;19936;-70
2022/08/08 02:14:25;;;;;;;;;;;;;;;16.86;98.56;101355.25;10030201;29;19929;-74
2022/08/08 02:19:35;;;;;;;;;;;;;;;16.89;97.76;101354.34;10031402;29;20351;-72
2022/08/08 02:25:06;;;;;;;;;;;;;;;16.79;97.64;101353.66;10031851;29;20248;-70
2022/08/08 02:30:19;;;;;;;;;;;;;;;16.79;97.91;101365.91;10031147;29;19936;-71
2022/08/08 02:35:34;;;;;;;;;;;;;;;16.75;97.62;101364.25;10030992;29;19950;-71
2022/08/08 02:41:16;;;;;;;;;;;;;;;16.76;97.85;101369.44;10030452;29;19929;-74
2022/08/08 02:47:09;;;;;;;;;;;;;;;16.70;97.34;101366.97;10030696;29;19928;-72
2022/08/08 02:52:27;;;;;;;;;;;;;;;16.69;97.32;101373.06;9963441;29;20353;-70
2022/08/08 02:58:05;;;;;;;;;;;;;;;16.65;98.00;101381.03;10030471;29;19928;-68
2022/08/08 03:03:23;;;;;;;;;;;;;;;16.68;97.33;101378.34;10000679;29;19929;-71
2022/08/08 03:09:10;;;;;;;;;;;;;;;16.71;96.91;101378.28;10029631;29;19928;-72
2022/08/08 03:14:26;;;;;;;;;;;;;;;16.66;97.16;101372.28;10029670;29;19928;-75
2022/08/08 03:20:05;;;;;;;;;;;;;;;16.55;97.47;101372.47;10029389;29;19935;-68
2022/08/08 03:25:14;;;;;;;;;;;;;;;16.51;98.03;101375.19;10041985;29;19934;-67
2022/08/08 03:30:20;;;;;;;;;;;;;;;16.07;100.00;101370.66;10105677;29;19928;-65
2022/08/08 03:35:24;;;;;;;;;;;;;;;16.10;100.00;101386.34;10105494;29;19928;-65
2022/08/08 03:40:36;;;;;;;;;;;;;;;16.23;100.00;101387.00;10104912;29;19938;-66
2022/08/08 03:45:40;;;;;;;;;;;;;;;16.31;100.00;101387.75;10104988;29;19935;-67
2022/08/08 03:51:06;;;;;;;;;;;;;;;16.18;100.00;101387.94;10104551;29;19961;-66
2022/08/08 03:56:10;;;;;;;;;;;;;;;16.28;100.00;101388.66;10104772;29;19927;-75
2022/08/08 04:01:36;;;;;;;;;;;;;;;16.60;99.37;101390.75;10104375;29;19946;-76
2022/08/08 04:06:59;;;;;;;;;;;;;;;16.58;98.78;101390.78;10104323;29;20015;-73
2022/08/08 04:12:05;;;;;;;;;;;;;;;16.70;98.08;101392.31;10104146;29;19928;-75
2022/08/08 04:17:13;;;;;;;;;;;;;;;16.71;97.74;101399.25;10103809;29;19938;-76
2022/08/08 04:22:36;;;;;;;;;;;;;;;16.73;98.10;101397.47;10103638;29;20269;-75
2022/08/08 04:27:41;;;;;;;;;;;;;;;16.75;98.32;101395.69;10103360;29;20339;-77
2022/08/08 04:33:04;;;;;;;;;;;;;;;16.81;98.39;101392.94;10103147;29;19955;-76
2022/08/08 04:38:09;;;;;;;;;;;;;;;16.87;98.97;101385.84;10102778;29;20353;-76
2022/08/08 04:43:24;;;;;;;;;;;;;;;17.01;98.17;101391.69;10103004;29;19928;-74
2022/08/08 04:48:47;;;;;;;;;;;;;;;17.08;97.79;101401.13;10102763;29;19928;-76
2022/08/08 04:53:50;;;;;;;;;;;;;;;17.16;97.57;101404.50;10102438;29;19928;-76
2022/08/08 04:59:14;;;;;;;;;;;;;;;17.23;97.32;101399.97;10102238;29;19938;-76
2022/08/08 05:04:18;;;;;;;;;;;;;;;17.27;97.37;101406.91;10102071;29;19928;-77
2022/08/08 05:09:21;;;;;;;;;;;;;;;17.33;97.43;101406.75;10101891;29;20334;-75
2022/08/08 05:14:25;;;;;;;;;;;;;;;17.38;97.45;101406.69;10101693;29;19938;-78
2022/08/08 05:19:32;;;;;;;;;;;;;;;17.48;97.56;101409.09;9397790;29;10000696;-75
2022/08/08 05:24:56;;;;;;;;;;;;;;;17.57;98.33;101422.03;10060305;29;19928;-75
2022/08/08 05:30:05;;;;;;;;;;;;;;;17.66;97.54;101411.31;10059633;29;19928;-77
2022/08/08 05:35:12;;;;;;;;;;;;;;;17.77;96.94;101418.97;10058252;29;19932;-74
2022/08/08 05:40:16;;;;;;;;;;;;;;;17.86;96.42;101421.41;10059305;29;19928;-76
2022/08/08 05:45:24;;;;;;;;;;;;;;;17.93;95.74;101429.06;10058402;29;19984;-77
2022/08/08 05:50:44;;;;;;;;;;;;;;;17.97;95.14;101419.38;10059143;29;19938;-75
2022/08/08 05:55:48;;;;;;;;;;;;;;;18.00;94.63;101425.41;10058699;29;19928;-77
2022/08/08 06:01:14;;;;;;;;;;;;;;;18.08;94.05;101420.88;10058960;29;19958;-74
2022/08/08 06:06:39;;;;;;;;;;;;;;;18.11;93.71;101425.16;10058395;29;20285;-74
2022/08/08 06:11:50;;;;;;;;;;;;;;;18.09;93.49;101434.84;10058405;29;19932;-73
2022/08/08 06:16:56;;;;;;;;;;;;;;;18.20;92.88;101436.34;10058456;29;19928;-75
2022/08/08 06:22:00;;;;;;;;;;;;;;;18.28;92.98;101436.13;10058693;29;19939;-75
2022/08/08 06:27:31;;;;;;;;;;;;;;;18.36;92.50;101427.16;10058067;29;20018;-76
2022/08/08 06:32:40;;;;;;;;;;;;;;;18.46;92.18;101437.47;10058079;29;19948;-74
2022/08/08 06:37:51;;;;;;;;;;;;;;;18.52;91.77;101432.91;10058205;29;19936;-74
2022/08/08 06:43:02;;;;;;;;;;;;;;;18.63;91.49;101428.25;10057814;29;19932;-76
2022/08/08 06:48:07;;;;;;;;;;;;;;;18.67;91.33;101432.56;10058460;29;19938;-74
2022/08/08 06:53:11;;;;;;;;;;;;;;;18.71;91.05;101441.19;10057652;29;20361;-74
2022/08/08 06:58:22;;;;;;;;;;;;;;;18.81;90.88;101445.34;10060493;29;19928;-73
2022/08/08 07:03:40;;;;;;;;;;;;;;;18.94;90.25;101446.72;10064798;29;19934;-75
2022/08/08 07:09:07;;;;;;;;;;;;;;;19.05;89.51;101450.78;10064666;29;20020;-77
2022/08/08 07:14:17;;;;;;;;;;;;;;;19.18;89.07;101433.75;10066794;29;20335;-74
2022/08/08 07:19:29;;;;;;;;;;;;;;;19.30;88.57;101441.34;10067335;29;19927;-77
2022/08/08 07:24:34;;;;;;;;;;;;;;;19.42;87.84;101440.13;10067854;29;19928;-76
2022/08/08 07:29:42;;;;;;;;;;;;;;;19.53;86.89;101438.88;10067090;29;20403;-75
2022/08/08 07:35:06;;;;;;;;;;;;;;;19.65;85.76;101445.59;10066811;29;19932;-75
2022/08/08 07:40:11;;;;;;;;;;;;;;;19.73;85.17;101443.56;10066676;29;19929;-78
2022/08/08 07:45:31;;;;;;;;;;;;;;;19.77;84.19;101447.84;9728913;29;9999895;-75
2022/08/08 07:50:57;;;;;;;;;;;;;;;19.82;83.83;101443.31;10062119;29;20380;-74
2022/08/08 07:56:01;;;;;;;;;;;;;;;19.86;83.15;101439.69;10062996;29;19975;-76
2022/08/08 08:01:06;;;;;;;;;;;;;;;19.92;81.21;101439.47;10062764;29;19928;-66
2022/08/08 08:06:13;;;;;;;;;;;;;;;19.97;80.04;101445.47;10062867;29;20015;-75
2022/08/08 08:11:22;;;;;;;;;;;;;;;20.09;79.27;101445.06;10061348;29;19967;-74
2022/08/08 08:16:26;;;;;;;;;;;;;;;20.32;77.83;101449.63;10030915;29;19939;-75
2022/08/08 08:21:37;;;;;;;;;;;;;;;20.51;76.71;101442.84;10057890;29;19932;-74
2022/08/08 08:27:01;;;;;;;;;;;;;;;20.65;74.95;101443.25;10062140;29;20024;-76
2022/08/08 08:32:05;;;;;;;;;;;;;;;20.80;73.27;101441.84;10061490;29;19936;-73
2022/08/08 08:37:15;;;;;;;;;;;;;;;20.83;73.19;101436.47;10061467;29;19938;-71
2022/08/08 08:42:23;;;;;;;;;;;;;;;20.85;72.77;101438.13;10061111;29;19932;-73
2022/08/08 08:47:39;;;;;;;;;;;;;;;20.94;70.81;101443.09;10067618;29;19928;-73
2022/08/08 08:52:48;;;;;;;;;;;;;;;21.11;69.90;101434.59;10022555;29;20075;-73
2022/08/08 08:58:08;;;;;;;;;;;;;;;21.23;69.27;101434.16;10025892;29;19928;-72
2022/08/08 09:03:13;;;;;;;;;;;;;;;21.28;69.85;101426.91;10060697;29;19928;-74
2022/08/08 09:08:23;;;;;;;;;;;;;;;21.38;69.78;101429.16;10060756;29;19939;-73
2022/08/08 09:13:31;;;;;;;;;;;;;;;21.43;69.73;101424.56;9725180;29;10000349;-74
2022/08/08 09:18:34;;;;;;;;;;;;;;;21.50;69.38;101433.16;10060028;29;20270;-72
2022/08/08 09:23:39;;;;;;;;;;;;;;;21.71;68.05;101430.53;10059703;29;19929;-72
2022/08/08 09:28:43;;;;;;;;;;;;;;;21.82;67.09;101434.56;10060478;29;19932;-76
2022/08/08 09:33:49;;;;;;;;;;;;;;;21.95;66.69;101418.16;10059306;29;19928;-71
2022/08/08 09:39:18;;;;;;;;;;;;;;;22.08;66.91;101427.34;10058968;29;19943;-73
2022/08/08 09:44:27;;;;;;;;;;;;;;;22.29;65.89;101421.19;10058936;29;19963;-71
2022/08/08 09:49:37;;;;;;;;;;;;;;;22.50;65.56;101414.97;10058646;29;19932;-74
2022/08/08 09:54:54;;;;;;;;;;;;;;;22.88;64.38;101411.56;10059092;29;20381;-72
2022/08/08 09:59:59;;;;;;;;;;;;;;;23.48;62.65;101404.47;10058827;29;19987;-76
2022/08/08 10:05:24;;;;;;;;;;;;;;;27.19;51.61;101388.50;10058302;29;20015;-74
2022/08/08 10:10:35;;;;;;;;;;;;;;;37.28;33.37;101370.03;10060469;29;19935;-72
2022/08/08 10:15:38;;;;;;;;;;;;;;;33.11;38.94;101382.94;10076626;29;19939;-74
2022/08/08 10:21:03;;;;;;;;;;;;;;;27.93;47.57;101385.53;10061308;29;20274;-73
2022/08/08 10:26:28;;;;;;;;;;;;;;;25.90;51.25;101389.13;10061392;29;20307;-73
2022/08/08 10:37:21;;;;;;;;;;;;;;;25.24;53.48;101390.22;10065737;29;19992;-73
2022/08/08 10:42:32;;;;;;;;;;;;;;;25.41;52.79;101378.69;10065042;29;19932;-73
2022/08/08 10:47:36;;;;;;;;;;;;;;;25.93;50.37;101372.16;10065596;29;20338;-73
2022/08/08 10:52:49;;;;;;;;;;;;;;;26.04;50.53;101373.28;10064658;29;19954;-75
2022/08/08 10:57:54;;;;;;;;;;;;;;;26.14;51.48;101373.59;10064787;29;20011;-76
2022/08/08 11:02:58;;;;;;;;;;;;;;;25.85;52.82;101379.72;10064460;29;19938;-76
2022/08/08 11:08:04;;;;;;;;;;;;;;;26.29;51.21;101378.03;10064593;29;19939;-72
2022/08/08 11:13:29;;;;;;;;;;;;;;;26.63;49.34;101367.06;10064260;29;20282;-75
2022/08/08 11:18:36;;;;;;;;;;;;;;;26.88;47.83;101355.81;10065036;29;19928;-73
2022/08/08 11:23:40;;;;;;;;;;;;;;;27.24;47.19;101350.84;10063882;29;19928;-75
2022/08/08 11:28:45;;;;;;;;;;;;;;;27.77;46.87;101350.09;10063850;29;19929;-73
2022/08/08 11:33:51;;;;;;;;;;;;;;;28.41;44.44;101342.19;10056228;29;20369;-73
2022/08/08 11:39:06;;;;;;;;;;;;;;;28.80;44.08;101335.97;10063411;29;19939;-77
2022/08/08 11:44:16;;;;;;;;;;;;;;;29.27;43.60;101336.97;9758656;24;10001957;-73
2022/08/08 11:49:31;;;;;;;;;;;;;;;29.90;43.10;101333.25;10063059;29;19980;-74
2022/08/08 11:54:35;;;;;;;;;;;;;;;29.49;43.28;101342.47;10062612;29;20430;-73
2022/08/08 11:59:53;;;;;;;;;;;;;;;28.82;44.88;101339.38;10062921;29;20083;-73
2022/08/08 12:05:06;;;;;;;;;;;;;;;28.95;43.90;101343.75;10062769;29;19928;-76
2022/08/08 12:10:12;;;;;;;;;;;;;;;28.86;43.81;101336.38;10062678;29;19928;-74
2022/08/08 12:15:29;;;;;;;;;;;;;;;29.33;42.33;101336.56;10062178;29;19940;-74
2022/08/08 12:20:43;;;;;;;;;;;;;;;30.26;41.82;101338.53;10062066;29;19938;-78
2022/08/08 12:25:48;;;;;;;;;;;;;;;31.19;40.12;101328.44;10062994;29;19964;-73
2022/08/08 12:31:05;;;;;;;;;;;;;;;30.84;40.14;101327.72;10065103;29;20258;-76
2022/08/08 12:36:10;;;;;;;;;;;;;;;31.51;38.07;101320.50;10065107;29;19988;-73
2022/08/08 12:41:13;;;;;;;;;;;;;;;30.43;40.03;101328.25;10064014;29;19928;-76
2022/08/08 12:46:37;;;;;;;;;;;;;;;29.96;40.38;101327.47;10064393;29;19934;-73
2022/08/08 12:51:40;;;;;;;;;;;;;;;29.84;39.64;101326.53;10064213;29;19928;-73
2022/08/08 12:56:54;;;;;;;;;;;;;;;29.77;40.31;101327.94;10063278;29;19947;-76
2022/08/08 13:02:00;;;;;;;;;;;;;;;28.36;41.89;101318.47;9724609;29;10000211;-73
2022/08/08 13:07:05;;;;;;;;;;;;;;;27.57;43.17;101316.72;10061195;29;20011;-72
2022/08/08 13:12:11;;;;;;;;;;;;;;;26.94;43.17;101316.31;10060310;29;20303;-77
2022/08/08 13:17:32;;;;;;;;;;;;;;;26.52;45.46;101321.59;10060579;29;19987;-72
2022/08/08 13:22:56;;;;;;;;;;;;;;;26.37;46.63;101319.00;10059804;29;20031;-71
2022/08/08 13:28:28;;;;;;;;;;;;;;;26.85;46.22;101321.38;10039686;29;20275;-74
2022/08/08 13:33:35;;;;;;;;;;;;;;;28.05;44.21;101316.19;10034198;29;19928;-67
2022/08/08 13:38:45;;;;;;;;;;;;;;;28.54;44.39;101312.84;10028450;29;19932;-74
2022/08/08 13:43:48;;;;;;;;;;;;;;;29.00;42.99;101304.16;10058812;29;19939;-74
2022/08/08 13:48:54;;;;;;;;;;;;;;;29.38;42.29;101307.66;10059452;29;19928;-74
2022/08/08 13:54:20;;;;;;;;;;;;;;;28.91;43.93;101309.31;10058640;29;19928;-71
2022/08/08 13:59:28;;;;;;;;;;;;;;;27.73;45.52;101311.25;10047494;29;19929;-74
2022/08/08 14:04:36;;;;;;;;;;;;;;;27.07;47.76;101311.94;10038119;29;19928;-73
2022/08/08 14:09:58;;;;;;;;;;;;;;;26.54;48.33;101317.00;10058228;29;19983;-72
2022/08/08 14:15:23;;;;;;;;;;;;;;;26.10;48.62;101329.47;10058354;29;20240;-73
2022/08/08 14:20:35;;;;;;;;;;;;;;;25.81;49.96;101327.63;10058999;29;19940;-74
2022/08/08 14:25:58;;;;;;;;;;;;;;;25.57;49.12;101337.00;10058175;29;19928;-67
2022/08/08 14:31:13;;;;;;;;;;;;;;;25.33;49.30;101331.22;10058025;29;19928;-65
2022/08/08 14:36:39;;;;;;;;;;;;;;;25.20;50.90;101334.63;10057747;29;19954;-66
2022/08/08 14:42:02;;;;;;;;;;;;;;;25.07;52.14;101331.81;10057978;29;19989;-70
2022/08/08 14:47:11;;;;;;;;;;;;;;;24.92;52.24;101332.59;10058146;29;19928;-66
2022/08/08 14:52:24;;;;;;;;;;;;;;;24.75;53.10;101322.03;10057270;29;19932;-67
2022/08/08 14:57:29;;;;;;;;;;;;;;;24.65;54.36;101326.94;10057512;29;19928;-67
2022/08/08 15:02:54;;;;;;;;;;;;;;;25.00;54.41;101322.44;10057355;29;20368;-67
2022/08/08 15:08:19;;;;;;;;;;;;;;;25.32;52.20;101331.28;10055611;29;19950;-65
2022/08/08 15:13:39;;;;;;;;;;;;;;;25.02;50.37;101318.75;10055862;29;19937;-71
2022/08/08 15:19:03;;;;;;;;;;;;;;;24.92;52.80;101314.88;10021519;29;19933;-71
2022/08/08 15:24:07;;;;;;;;;;;;;;;24.75;53.67;101312.25;10029291;29;19928;-70
2022/08/08 15:29:16;;;;;;;;;;;;;;;24.53;55.23;101310.78;10029076;29;19928;-72
2022/08/08 15:34:19;;;;;;;;;;;;;;;24.39;56.82;101313.31;10055324;29;20262;-72
2022/08/08 15:39:36;;;;;;;;;;;;;;;24.22;57.79;101308.00;10097871;29;19938;-69
2022/08/08 15:44:41;;;;;;;;;;;;;;;24.09;58.53;101321.03;10066100;29;19928;-72
2022/08/08 15:49:47;;;;;;;;;;;;;;;24.05;58.07;101314.19;10065947;29;19928;-71
2022/08/08 15:54:52;;;;;;;;;;;;;;;24.02;57.83;101318.78;9729234;29;9999856;-69
2022/08/08 15:59:55;;;;;;;;;;;;;;;23.96;57.91;101314.59;10062987;29;19960;-68
2022/08/08 16:05:18;;;;;;;;;;;;;;;24.02;57.72;101317.00;10062569;29;20358;-71
2022/08/08 16:10:23;;;;;;;;;;;;;;;24.02;56.65;101315.19;10062832;29;20014;-70
2022/08/08 16:15:47;;;;;;;;;;;;;;;24.09;55.61;101315.72;10062250;29;19928;-70
2022/08/08 16:21:01;;;;;;;;;;;;;;;24.05;55.12;101319.50;10061790;29;19928;-70
2022/08/08 16:26:09;;;;;;;;;;;;;;;23.99;55.02;101322.44;10061979;29;19928;-67
2022/08/08 16:31:21;;;;;;;;;;;;;;;23.96;55.54;101325.22;10060606;29;19935;-71
2022/08/08 16:36:28;;;;;;;;;;;;;;;23.88;56.12;101320.28;10061874;29;19938;-69
2022/08/08 16:41:37;;;;;;;;;;;;;;;23.80;56.68;101318.94;10061144;29;19950;-68
2022/08/08 16:46:44;;;;;;;;;;;;;;;23.72;56.89;101331.72;10060500;29;19928;-71
2022/08/08 16:51:48;;;;;;;;;;;;;;;23.64;56.79;101333.91;10060811;29;19932;-68
2022/08/08 16:57:13;;;;;;;;;;;;;;;23.58;56.85;101339.47;10033335;29;20071;-69
2022/08/08 17:02:36;;;;;;;;;;;;;;;23.52;56.80;101345.09;10022908;29;19939;-72
2022/08/08 17:07:43;;;;;;;;;;;;;;;23.49;57.97;101346.06;10035079;29;20281;-70
2022/08/08 17:12:54;;;;;;;;;;;;;;;23.50;57.83;101349.59;10059714;29;19942;-72
2022/08/08 17:17:57;;;;;;;;;;;;;;;23.47;58.66;101350.59;10059975;29;20270;-69
2022/08/08 17:23:06;;;;;;;;;;;;;;;23.45;58.16;101360.41;10059763;29;20035;-69
2022/08/08 17:28:30;;;;;;;;;;;;;;;23.43;59.45;101362.28;10059809;29;20244;-71
2022/08/08 17:33:37;;;;;;;;;;;;;;;23.33;59.25;101366.28;10059373;29;19946;-72
2022/08/08 17:39:00;;;;;;;;;;;;;;;23.18;58.77;101369.59;10059377;29;20270;-72
2022/08/08 17:44:24;;;;;;;;;;;;;;;23.11;58.87;101376.09;10058277;29;19932;-73
2022/08/08 17:49:29;;;;;;;;;;;;;;;23.01;59.95;101373.94;10059176;29;20406;-66
2022/08/08 17:54:45;;;;;;;;;;;;;;;22.85;60.34;101381.72;10058678;29;19942;-69
2022/08/08 17:59:59;;;;;;;;;;;;;;;22.73;60.91;101390.19;10020660;29;20291;-68
2022/08/08 18:05:04;;;;;;;;;;;;;;;22.65;60.91;101398.47;10021822;29;19932;-70
2022/08/08 18:10:07;;;;;;;;;;;;;;;22.48;61.45;101405.38;10093936;29;19931;-65
2022/08/08 18:15:12;;;;;;;;;;;;;;;22.43;62.11;101402.06;10096546;29;20439;-65
2022/08/08 18:20:15;;;;;;;;;;;;;;;22.41;62.66;101411.84;10096865;29;20030;-69
2022/08/08 18:25:38;;;;;;;;;;;;;;;22.32;64.03;101420.16;10096548;29;20353;-71
2022/08/08 18:30:44;;;;;;;;;;;;;;;22.23;64.90;101425.84;10096538;29;19932;-70
2022/08/08 18:35:47;;;;;;;;;;;;;;;22.20;65.23;101444.47;10096433;29;19928;-65
2022/08/08 18:40:50;;;;;;;;;;;;;;;22.14;64.77;101442.94;10096249;29;19928;-68
2022/08/08 18:45:57;;;;;;;;;;;;;;;22.14;65.70;101448.22;10096784;29;19942;-67
2022/08/08 18:51:20;;;;;;;;;;;;;;;22.11;65.40;101455.41;10096208;29;19928;-67
2022/08/08 18:56:43;;;;;;;;;;;;;;;22.16;66.45;101451.69;10102346;29;19938;-70
2022/08/08 19:01:47;;;;;;;;;;;;;;;22.13;67.55;101451.81;10083908;29;20317;-68
2022/08/08 19:07:10;;;;;;;;;;;;;;;22.10;68.66;101462.50;10064759;29;19938;-71
2022/08/08 19:12:13;;;;;;;;;;;;;;;22.11;67.23;101463.34;10064565;29;19934;-71
2022/08/08 19:17:17;;;;;;;;;;;;;;;22.04;66.58;101461.91;10064829;29;19928;-71
2022/08/08 19:22:40;;;;;;;;;;;;;;;21.95;66.70;101464.91;10064077;29;19928;-62
2022/08/08 19:27:46;;;;;;;;;;;;;;;21.88;67.17;101466.94;10064082;29;19939;-66
2022/08/08 19:33:00;;;;;;;;;;;;;;;21.86;68.51;101468.78;10063775;29;20239;-65
2022/08/08 19:38:05;;;;;;;;;;;;;;;21.85;70.38;101474.97;10063521;29;19938;-69
2022/08/08 19:43:11;;;;;;;;;;;;;;;21.78;71.09;101473.47;10063303;29;19928;-63
2022/08/08 19:48:19;;;;;;;;;;;;;;;21.75;71.41;101481.50;10063662;29;19932;-66
2022/08/08 19:53:33;;;;;;;;;;;;;;;21.74;71.11;101483.25;10063154;29;19928;-67
2022/08/08 19:58:54;;;;;;;;;;;;;;;21.74;69.97;101485.06;10062963;29;19940;-64
2022/08/08 20:03:59;;;;;;;;;;;;;;;21.73;69.32;101497.41;10062590;29;20603;-68
2022/08/08 20:09:05;;;;;;;;;;;;;;;21.72;69.61;101495.69;10037120;29;19943;-68
2022/08/08 20:14:10;;;;;;;;;;;;;;;21.70;69.22;101496.66;10025071;29;19932;-65
2022/08/08 20:19:35;;;;;;;;;;;;;;;21.69;69.68;101501.06;10024575;29;19929;-61
2022/08/08 20:24:45;;;;;;;;;;;;;;;21.70;69.64;101499.31;10024024;29;19937;-63
2022/08/08 20:29:48;;;;;;;;;;;;;;;21.72;68.75;101505.41;10023666;29;19938;-65
2022/08/08 20:35:04;;;;;;;;;;;;;;;21.70;69.69;101500.19;10023573;29;19940;-65
2022/08/08 20:40:10;;;;;;;;;;;;;;;21.70;69.30;101496.66;10023239;29;19942;-66
2022/08/08 20:45:18;;;;;;;;;;;;;;;21.68;69.76;101501.13;10023609;29;19928;-67
2022/08/08 20:50:43;;;;;;;;;;;;;;;21.70;69.03;101509.88;10023124;29;19935;-63
2022/08/08 20:55:46;;;;;;;;;;;;;;;21.63;69.01;101505.75;10039252;29;19954;-62
2022/08/08 21:00:53;;;;;;;;;;;;;;;21.57;69.19;101503.34;10060822;29;20418;-65
2022/08/08 21:05:57;;;;;;;;;;;;;;;21.47;69.88;101500.16;10060560;29;19932;-62
2022/08/08 21:11:01;;;;;;;;;;;;;;;21.50;70.15;101499.19;10060381;29;19939;-65
2022/08/08 21:16:05;;;;;;;;;;;;;;;21.45;69.15;101499.34;10060512;29;19928;-69
2022/08/08 21:21:24;;;;;;;;;;;;;;;21.39;69.28;101499.59;10060384;29;19928;-65
2022/08/08 21:26:43;;;;;;;;;;;;;;;21.36;70.37;101504.13;10060044;29;19928;-67
2022/08/08 21:31:46;;;;;;;;;;;;;;;21.34;71.30;101501.53;10059742;29;20595;-65
2022/08/08 21:37:02;;;;;;;;;;;;;;;21.30;70.90;101509.59;10060907;29;19934;-67
2022/08/08 21:42:17;;;;;;;;;;;;;;;21.34;70.82;101508.59;10062488;29;19938;-70
2022/08/08 21:47:25;;;;;;;;;;;;;;;21.35;70.99;101513.81;10062595;29;19928;-70
2022/08/08 21:52:52;;;;;;;;;;;;;;;21.34;70.30;101508.59;10062563;29;19928;-66
2022/08/08 21:58:15;;;;;;;;;;;;;;;21.34;70.78;101505.94;10062401;29;19928;-70
2022/08/08 22:03:19;;;;;;;;;;;;;;;21.27;70.27;101510.59;10062590;29;20228;-72
2022/08/08 22:08:23;;;;;;;;;;;;;;;21.29;70.63;101513.19;10062621;29;19935;-71
2022/08/08 22:13:26;;;;;;;;;;;;;;;21.23;72.50;101500.16;10062465;29;19927;-72
2022/08/08 22:18:49;;;;;;;;;;;;;;;21.20;72.83;101503.81;10062397;29;19928;-71
2022/08/08 22:23:56;;;;;;;;;;;;;;;21.16;73.91;101510.09;9724626;29;9999627;-71
2022/08/08 22:29:00;;;;;;;;;;;;;;;21.18;73.00;101512.69;10061204;29;19934;-72
2022/08/08 22:34:23;;;;;;;;;;;;;;;21.16;72.81;101519.78;10066142;29;19939;-71
2022/08/08 22:39:30;;;;;;;;;;;;;;;21.14;72.39;101516.38;10066082;29;19928;-73
2022/08/08 22:44:53;;;;;;;;;;;;;;;21.10;72.62;101525.31;10068762;29;19928;-73
2022/08/08 22:49:56;;;;;;;;;;;;;;;21.03;73.29;101521.16;10068855;29;19929;-74
2022/08/08 22:55:04;;;;;;;;;;;;;;;21.01;73.98;101515.91;10068623;29;20269;-73
2022/08/08 23:00:09;;;;;;;;;;;;;;;20.96;74.86;101516.94;10068594;29;19928;-72
2022/08/08 23:05:15;;;;;;;;;;;;;;;20.92;75.91;101523.25;10068187;29;19928;-70
2022/08/08 23:10:19;;;;;;;;;;;;;;;20.86;75.39;101513.78;10068081;29;20091;-71
2022/08/08 23:15:27;;;;;;;;;;;;;;;20.84;75.56;101531.44;10067963;29;19928;-74
2022/08/08 23:20:50;;;;;;;;;;;;;;;20.84;75.08;101522.66;10067906;29;19938;-71
2022/08/08 23:25:58;;;;;;;;;;;;;;;20.77;75.55;101524.63;10068564;29;19934;-72
2022/08/08 23:31:01;;;;;;;;;;;;;;;20.79;76.13;101520.19;10067279;29;20067;-74
2022/08/08 23:36:05;;;;;;;;;;;;;;;20.74;76.51;101522.09;10067560;29;19928;-71
2022/08/08 23:41:12;;;;;;;;;;;;;;;20.70;76.82;101517.84;10067158;29;20243;-72
2022/08/08 23:46:26;;;;;;;;;;;;;;;20.62;77.79;101523.34;10067139;29;19928;-73
2022/08/08 23:51:51;;;;;;;;;;;;;;;20.60;77.08;101522.53;10067080;29;19928;-73
2022/08/08 23:57:10;;;;;;;;;;;;;;;20.63;78.25;101527.72;10066842;29;19935;-75
